Terminal Aerodrome Forecast
Issued by NWS

Current Version | Previous Version | Text Only | Print | Product List | Glossary Off
Versions: 1 2 3 4 5 6 7 8 9 10 11 12 13 14 15 16 17

000
FTUS44 KCRP 270824 AAA
TAFLRD
TAF AMD
KLRD 270824Z 2708/2806 30010KT 4SM BR SCT006 BKN018
      TEMPO 2708/2710 2SM TSRA BKN006CB
     FM271000 32012KT 5SM BR SCT012 BKN250
     FM271200 35015G20KT P6SM SCT040
     FM280000 VRB03KT P6SM SKC=

USA.gov is the U.S. government's official web portal to all federal, state and local government web resources and services.